Date,TemperatureHighF,TemperatureAvgF,TemperatureLowF,DewpointHighF,DewpointAvgF,DewpointLowF,HumidityHigh,HumidityAvg,HumidityLow,PressureMaxIn,PressureMinIn,WindSpeedMaxMPH,WindSpeedAvgMPH,GustSpeedMaxMPH,PrecipitationSumIn
2013-7-1,83.0,73.7,72.0,77.0,73.0,69.0,100,98,74,30.01,29.87,13,8,25,37.80
2013-7-2,82.0,75.1,73.0,79.0,74.4,72.0,100,98,72,30.09,29.98,10,5,20,38.08
2013-7-3,89.0,76.9,73.0,78.0,73.8,71.0,100,91,56,30.13,30.05,12,5,21,40.04
2013-7-4,88.0,78.6,72.0,78.0,73.1,68.0,100,84,59,30.15,30.07,13,6,22,43.68
2013-7-5,89.0,77.3,74.0,79.0,75.0,71.0,100,94,56,30.15,30.06,14,6,27,41.86
2013-7-6,92.0,81.3,74.0,80.0,69.8,-99.9,100,78,46,30.12,30.04,13,8,22,44.38
2013-7-7,92.0,82.7,75.0,78.0,72.7,66.0,100,75,44,30.14,30.04,15,8,24,45.76
2013-7-8,93.0,79.2,74.0,79.0,71.2,-99.9,100,83,41,30.15,30.08,11,6,18,45.50
2013-7-9,90.0,79.4,74.0,77.0,73.1,65.0,100,84,44,30.17,30.07,12,5,20,49.68
2013-7-10,93.0,78.4,74.0,77.0,67.6,-99.9,100,76,42,30.10,29.98,13,4,23,43.47
2013-7-11,89.0,79.1,73.0,75.0,72.5,65.0,100,83,46,30.04,29.94,11,5,15,47.61
2013-7-12,86.0,77.3,74.0,77.0,73.7,71.0,100,90,64,29.95,29.90,6,-12,10,45.54
2013-7-13,90.0,77.5,72.0,77.0,72.9,68.0,100,88,50,30.00,29.91,13,4,17,47.79
2013-7-14,89.0,75.2,72.0,77.0,73.3,69.0,100,95,60,30.09,29.97,12,5,17,50.40
2013-7-15,88.0,76.0,71.0,78.0,72.3,68.0,100,90,52,30.11,30.02,8,4,13,48.30
2013-7-16,89.0,75.6,73.0,76.0,73.8,69.0,100,95,54,30.15,30.09,13,4,22,42.00
2013-7-17,88.0,77.0,72.0,77.0,73.8,71.0,100,91,57,30.15,30.08,19,5,31,46.20
2013-7-18,89.0,76.1,72.0,76.0,72.7,68.0,100,91,50,30.12,30.05,11,4,28,50.40
2013-7-19,90.0,75.3,71.0,75.0,72.3,70.0,100,92,56,30.13,30.03,11,5,17,39.90
2013-7-20,91.0,77.6,72.0,80.0,72.2,-99.9,100,87,56,30.11,30.03,15,4,23,50.40
2013-7-21,91.0,78.8,73.0,80.0,74.0,70.0,100,87,54,30.13,30.03,14,5,22,50.40
2013-7-22,91.0,76.7,73.0,77.0,74.0,70.0,100,93,51,30.13,30.07,8,5,13,46.35
2013-7-23,88.0,78.0,74.0,80.0,74.5,70.0,100,90,61,30.10,29.97,14,6,19,46.42
2013-7-24,87.0,79.4,75.0,78.0,75.2,72.0,100,88,63,30.00,29.90,16,8,25,50.64
2013-7-25,85.0,78.1,73.0,77.0,75.4,73.0,100,92,68,30.00,29.89,13,7,18,46.42
2013-7-26,91.0,79.6,75.0,78.0,74.2,69.0,100,86,48,30.02,29.94,11,4,15,48.53
2013-7-27,92.0,82.1,75.0,78.0,73.7,67.0,100,79,46,29.99,29.90,10,4,17,48.53
2013-7-28,90.0,78.8,74.0,81.0,74.1,67.0,100,88,49,30.07,29.93,9,3,14,50.64
2013-7-29,96.0,79.2,74.0,76.0,73.1,68.0,100,84,43,30.15,30.03,10,2,17,48.53
2013-7-30,92.0,81.0,75.0,79.0,73.8,68.0,100,81,46,30.18,30.08,12,3,19,44.31
2013-7-31,92.0,81.7,76.0,81.0,74.1,67.0,100,80,46,30.14,30.01,7,4,12,44.49